sensor_id;sensor_type;location;lat;lon;timestamp;pressure;altitude;pressure_sealevel;temperature;humidity
11676;BME280;5894;42.768;23.404;2024-02-26T00:01:19;95214.56;;;8.61;100.00
11676;BME280;5894;42.768;23.404;2024-02-26T00:03:46;95208.19;;;8.62;100.00
11676;BME280;5894;42.768;23.404;2024-02-26T00:06:15;95211.03;;;8.66;100.00
11676;BME280;5894;42.768;23.404;2024-02-26T00:08:43;95214.56;;;8.61;100.00
11676;BME280;5894;42.768;23.404;2024-02-26T00:11:10;95211.31;;;8.64;100.00
11676;BME280;5894;42.768;23.404;2024-02-26T00:13:37;95208.41;;;8.66;100.00
11676;BME280;5894;42.768;23.404;2024-02-26T00:16:05;95203.28;;;8.61;100.00
11676;BME280;5894;42.768;23.404;2024-02-26T00:18:33;95197.81;;;8.57;100.00
11676;BME280;5894;42.768;23.404;2024-02-26T00:21:00;95201.66;;;8.51;100.00
11676;BME280;5894;42.768;23.404;2024-02-26T00:23:28;95193.22;;;8.63;100.00
11676;BME280;5894;42.768;23.404;2024-02-26T00:25:55;95199.25;;;8.63;100.00
11676;BME280;5894;42.768;23.404;2024-02-26T00:28:23;95199.63;;;8.70;100.00
11676;BME280;5894;42.768;23.404;2024-02-26T00:30:51;95199.94;;;8.69;100.00
11676;BME280;5894;42.768;23.404;2024-02-26T00:33:21;95196.59;;;8.77;100.00
11676;BME280;5894;42.768;23.404;2024-02-26T00:35:49;95189.97;;;8.79;100.00
11676;BME280;5894;42.768;23.404;2024-02-26T00:38:16;95198.56;;;8.71;100.00
11676;BME280;5894;42.768;23.404;2024-02-26T00:40:44;95195.94;;;8.71;100.00
11676;BME280;5894;42.768;23.404;2024-02-26T00:43:11;95197.28;;;8.69;100.00
11676;BME280;5894;42.768;23.404;2024-02-26T00:45:38;95199.38;;;8.58;100.00
11676;BME280;5894;42.768;23.404;2024-02-26T00:48:06;95180.00;;;8.54;100.00
11676;BME280;5894;42.768;23.404;2024-02-26T00:50:33;95164.31;;;8.40;100.00
11676;BME280;5894;42.768;23.404;2024-02-26T00:53:01;95181.38;;;8.52;100.00
11676;BME280;5894;42.768;23.404;2024-02-26T00:55:28;95181.69;;;8.50;100.00
11676;BME280;5894;42.768;23.404;2024-02-26T00:57:56;95176.72;;;8.49;100.00
11676;BME280;5894;42.768;23.404;2024-02-26T01:00:23;95173.31;;;8.48;100.00
11676;BME280;5894;42.768;23.404;2024-02-26T01:02:50;95171.09;;;8.41;100.00
11676;BME280;5894;42.768;23.404;2024-02-26T01:05:17;95163.91;;;8.33;100.00
11676;BME280;5894;42.768;23.404;2024-02-26T01:07:44;95169.47;;;8.32;100.00
11676;BME280;5894;42.768;23.404;2024-02-26T01:10:11;95161.56;;;8.32;100.00
11676;BME280;5894;42.768;23.404;2024-02-26T01:12:38;95152.44;;;8.29;100.00
11676;BME280;5894;42.768;23.404;2024-02-26T01:15:07;95152.72;;;8.28;100.00
11676;BME280;5894;42.768;23.404;2024-02-26T01:17:34;95154.06;;;8.25;100.00
11676;BME280;5894;42.768;23.404;2024-02-26T01:20:02;95121.84;;;7.97;100.00
11676;BME280;5894;42.768;23.404;2024-02-26T01:22:30;95150.47;;;8.21;100.00
11676;BME280;5894;42.768;23.404;2024-02-26T01:24:57;95147.56;;;8.23;100.00
11676;BME280;5894;42.768;23.404;2024-02-26T01:27:24;95153.50;;;8.28;100.00
11676;BME280;5894;42.768;23.404;2024-02-26T01:29:52;95147.75;;;8.26;100.00
11676;BME280;5894;42.768;23.404;2024-02-26T01:32:21;95146.28;;;8.34;100.00
11676;BME280;5894;42.768;23.404;2024-02-26T01:34:48;95145.59;;;8.42;100.00
11676;BME280;5894;42.768;23.404;2024-02-26T01:37:15;95143.56;;;8.39;100.00
11676;BME280;5894;42.768;23.404;2024-02-26T01:39:42;95138.91;;;8.36;100.00
11676;BME280;5894;42.768;23.404;2024-02-26T01:42:09;95143.38;;;8.35;100.00
11676;BME280;5894;42.768;23.404;2024-02-26T01:44:36;95143.66;;;8.34;100.00
11676;BME280;5894;42.768;23.404;2024-02-26T01:47:04;95092.63;;;8.13;100.00
11676;BME280;5894;42.768;23.404;2024-02-26T01:49:34;95135.88;;;8.29;100.00
11676;BME280;5894;42.768;23.404;2024-02-26T01:52:03;95120.63;;;8.17;100.00
11676;BME280;5894;42.768;23.404;2024-02-26T01:54:31;95115.78;;;8.10;100.00
11676;BME280;5894;42.768;23.404;2024-02-26T01:56:59;95139.50;;;8.19;100.00
11676;BME280;5894;42.768;23.404;2024-02-26T01:59:26;95134.13;;;8.24;100.00
11676;BME280;5894;42.768;23.404;2024-02-26T02:01:57;95089.88;;;7.95;100.00
11676;BME280;5894;42.768;23.404;2024-02-26T02:04:25;95131.41;;;8.29;100.00
11676;BME280;5894;42.768;23.404;2024-02-26T02:06:54;95133.06;;;8.39;100.00
11676;BME280;5894;42.768;23.404;2024-02-26T02:09:22;95134.34;;;8.28;100.00
11676;BME280;5894;42.768;23.404;2024-02-26T02:11:49;95133.94;;;8.34;100.00
11676;BME280;5894;42.768;23.404;2024-02-26T02:14:16;95138.41;;;8.34;100.00
11676;BME280;5894;42.768;23.404;2024-02-26T02:16:43;95127.41;;;8.32;100.00
11676;BME280;5894;42.768;23.404;2024-02-26T02:19:10;95119.84;;;8.30;100.00
11676;BME280;5894;42.768;23.404;2024-02-26T02:21:39;95128.47;;;8.31;100.00
11676;BME280;5894;42.768;23.404;2024-02-26T02:24:06;95134.81;;;8.30;100.00
11676;BME280;5894;42.768;23.404;2024-02-26T02:26:33;95134.53;;;8.31;100.00
11676;BME280;5894;42.768;23.404;2024-02-26T02:29:00;95139.97;;;8.35;100.00
11676;BME280;5894;42.768;23.404;2024-02-26T02:31:28;95137.06;;;8.36;100.00
11676;BME280;5894;42.768;23.404;2024-02-26T02:33:56;95135.22;;;8.37;100.00
11676;BME280;5894;42.768;23.404;2024-02-26T02:36:23;95135.56;;;8.44;100.00
11676;BME280;5894;42.768;23.404;2024-02-26T02:38:51;95141.03;;;8.34;100.00
11676;BME280;5894;42.768;23.404;2024-02-26T02:41:18;95144.44;;;8.34;100.00
11676;BME280;5894;42.768;23.404;2024-02-26T02:43:46;95141.13;;;8.29;100.00
11676;BME280;5894;42.768;23.404;2024-02-26T02:46:13;95143.47;;;8.30;100.00
11676;BME280;5894;42.768;23.404;2024-02-26T02:48:41;95149.31;;;8.27;100.00
11676;BME280;5894;42.768;23.404;2024-02-26T02:51:09;95140.84;;;8.30;100.00
11676;BME280;5894;42.768;23.404;2024-02-26T02:53:36;95149.72;;;8.34;100.00
11676;BME280;5894;42.768;23.404;2024-02-26T02:56:05;95138.59;;;8.24;100.00
11676;BME280;5894;42.768;23.404;2024-02-26T02:58:32;95151.75;;;8.37;100.00
11676;BME280;5894;42.768;23.404;2024-02-26T03:00:59;95155.50;;;8.45;100.00
11676;BME280;5894;42.768;23.404;2024-02-26T03:03:26;95152.47;;;8.52;100.00
11676;BME280;5894;42.768;23.404;2024-02-26T03:05:54;95151.38;;;8.53;100.00
11676;BME280;5894;42.768;23.404;2024-02-26T03:08:22;95146.75;;;8.50;100.00
11676;BME280;5894;42.768;23.404;2024-02-26T03:10:49;95144.78;;;8.55;100.00
11676;BME280;5894;42.768;23.404;2024-02-26T03:13:17;95142.72;;;8.52;100.00
11676;BME280;5894;42.768;23.404;2024-02-26T03:15:44;95150.16;;;8.50;100.00
11676;BME280;5894;42.768;23.404;2024-02-26T03:18:11;95156.00;;;8.47;100.00
11676;BME280;5894;42.768;23.404;2024-02-26T03:20:38;95155.25;;;8.33;100.00
11676;BME280;5894;42.768;23.404;2024-02-26T03:23:06;95144.84;;;8.28;100.00
11676;BME280;5894;42.768;23.404;2024-02-26T03:25:35;95145.53;;;8.33;100.00
11676;BME280;5894;42.768;23.404;2024-02-26T03:28:02;95148.16;;;8.33;100.00
11676;BME280;5894;42.768;23.404;2024-02-26T03:30:31;95141.53;;;8.36;100.00
11676;BME280;5894;42.768;23.404;2024-02-26T03:32:58;95142.59;;;8.35;100.00
11676;BME280;5894;42.768;23.404;2024-02-26T03:35:25;95105.19;;;8.16;100.00
11676;BME280;5894;42.768;23.404;2024-02-26T03:37:52;95123.97;;;8.45;100.00
11676;BME280;5894;42.768;23.404;2024-02-26T03:40:19;95134.19;;;8.46;100.00
11676;BME280;5894;42.768;23.404;2024-02-26T03:42:46;95138.97;;;8.44;100.00
11676;BME280;5894;42.768;23.404;2024-02-26T03:45:13;95125.63;;;8.41;100.00
11676;BME280;5894;42.768;23.404;2024-02-26T03:47:42;95128.47;;;8.31;100.00
11676;BME280;5894;42.768;23.404;2024-02-26T03:50:09;95126.19;;;8.16;100.00
11676;BME280;5894;42.768;23.404;2024-02-26T03:52:36;95112.97;;;8.07;100.00
11676;BME280;5894;42.768;23.404;2024-02-26T03:55:04;95130.00;;;8.09;100.00
11676;BME280;5894;42.768;23.404;2024-02-26T03:57:31;95128.53;;;8.17;100.00
11676;BME280;5894;42.768;23.404;2024-02-26T03:59:58;95118.00;;;8.17;100.00
11676;BME280;5894;42.768;23.404;2024-02-26T04:02:25;95119.75;;;8.22;100.00
11676;BME280;5894;42.768;23.404;2024-02-26T04:04:54;95118.88;;;8.26;100.00
11676;BME280;5894;42.768;23.404;2024-02-26T04:07:21;95111.94;;;8.30;100.00
11676;BME280;5894;42.768;23.404;2024-02-26T04:09:48;95111.47;;;8.28;100.00
11676;BME280;5894;42.768;23.404;2024-02-26T04:12:15;95116.53;;;8.25;100.00
11676;BME280;5894;42.768;23.404;2024-02-26T04:14:42;95115.88;;;8.19;100.00
11676;BME280;5894;42.768;23.404;2024-02-26T04:17:10;95109.84;;;8.19;100.00
11676;BME280;5894;42.768;23.404;2024-02-26T04:19:38;95110.91;;;8.18;100.00
11676;BME280;5894;42.768;23.404;2024-02-26T04:22:06;95114.69;;;8.25;100.00
11676;BME280;5894;42.768;23.404;2024-02-26T04:24:33;95107.44;;;8.31;100.00
11676;BME280;5894;42.768;23.404;2024-02-26T04:27:00;95105.25;;;8.24;100.00
11676;BME280;5894;42.768;23.404;2024-02-26T04:29:27;95105.88;;;8.07;100.00
11676;BME280;5894;42.768;23.404;2024-02-26T04:31:55;95103.97;;;7.86;100.00
11676;BME280;5894;42.768;23.404;2024-02-26T04:34:22;95090.88;;;7.58;100.00
11676;BME280;5894;42.768;23.404;2024-02-26T04:36:49;95104.78;;;7.31;100.00
11676;BME280;5894;42.768;23.404;2024-02-26T04:39:18;95097.97;;;7.17;100.00
11676;BME280;5894;42.768;23.404;2024-02-26T04:41:45;95100.59;;;7.03;100.00
11676;BME280;5894;42.768;23.404;2024-02-26T04:44:12;95101.91;;;6.87;100.00
11676;BME280;5894;42.768;23.404;2024-02-26T04:46:39;95100.06;;;6.74;100.00
11676;BME280;5894;42.768;23.404;2024-02-26T04:49:06;95083.22;;;6.61;100.00
11676;BME280;5894;42.768;23.404;2024-02-26T04:51:33;95101.63;;;6.75;100.00
11676;BME280;5894;42.768;23.404;2024-02-26T04:54:01;95113.28;;;6.96;100.00
11676;BME280;5894;42.768;23.404;2024-02-26T04:56:29;95060.75;;;6.74;100.00
11676;BME280;5894;42.768;23.404;2024-02-26T04:58:56;95114.97;;;7.19;100.00
11676;BME280;5894;42.768;23.404;2024-02-26T05:01:23;95121.00;;;7.20;100.00
11676;BME280;5894;42.768;23.404;2024-02-26T05:03:51;95130.91;;;7.23;100.00
11676;BME280;5894;42.768;23.404;2024-02-26T05:06:18;95137.03;;;7.32;100.00
11676;BME280;5894;42.768;23.404;2024-02-26T05:08:45;95132.00;;;7.35;100.00
11676;BME280;5894;42.768;23.404;2024-02-26T05:11:12;95136.28;;;7.45;100.00
11676;BME280;5894;42.768;23.404;2024-02-26T05:13:41;95137.72;;;7.51;100.00
11676;BME280;5894;42.768;23.404;2024-02-26T05:16:08;95145.53;;;7.56;100.00
11676;BME280;5894;42.768;23.404;2024-02-26T05:18:35;95138.03;;;7.63;100.00
11676;BME280;5894;42.768;23.404;2024-02-26T05:21:02;95143.16;;;7.68;100.00
11676;BME280;5894;42.768;23.404;2024-02-26T05:23:30;95142.78;;;7.75;100.00
11676;BME280;5894;42.768;23.404;2024-02-26T05:25:57;95148.81;;;7.76;100.00
11676;BME280;5894;42.768;23.404;2024-02-26T05:28:24;95154.72;;;7.81;100.00
11676;BME280;5894;42.768;23.404;2024-02-26T05:30:52;95157.06;;;7.83;100.00
11676;BME280;5894;42.768;23.404;2024-02-26T05:33:19;95158.13;;;7.82;100.00
11676;BME280;5894;42.768;23.404;2024-02-26T05:35:47;95164.38;;;7.86;100.00
11676;BME280;5894;42.768;23.404;2024-02-26T05:38:14;95181.84;;;7.90;100.00
11676;BME280;5894;42.768;23.404;2024-02-26T05:40:41;95182.34;;;7.92;100.00
11676;BME280;5894;42.768;23.404;2024-02-26T05:43:08;95180.69;;;7.96;100.00
11676;BME280;5894;42.768;23.404;2024-02-26T05:45:35;95187.78;;;7.96;100.00
11676;BME280;5894;42.768;23.404;2024-02-26T05:48:04;95194.47;;;8.02;100.00
11676;BME280;5894;42.768;23.404;2024-02-26T05:50:31;95194.47;;;8.02;100.00
11676;BME280;5894;42.768;23.404;2024-02-26T05:52:58;95187.66;;;8.01;100.00
11676;BME280;5894;42.768;23.404;2024-02-26T05:55:25;95182.22;;;8.11;100.00
11676;BME280;5894;42.768;23.404;2024-02-26T05:57:53;95190.28;;;8.15;100.00
11676;BME280;5894;42.768;23.404;2024-02-26T06:00:20;95203.72;;;8.13;100.00
11676;BME280;5894;42.768;23.404;2024-02-26T06:02:47;95200.22;;;8.18;100.00
11676;BME280;5894;42.768;23.404;2024-02-26T06:05:16;95209.81;;;8.22;100.00
11676;BME280;5894;42.768;23.404;2024-02-26T06:07:43;95201.66;;;8.24;100.00
11676;BME280;5894;42.768;23.404;2024-02-26T06:10:10;95196.69;;;8.22;100.00
11676;BME280;5894;42.768;23.404;2024-02-26T06:12:39;95207.59;;;8.29;100.00
11676;BME280;5894;42.768;23.404;2024-02-26T06:15:07;95205.66;;;8.35;100.00
11676;BME280;5894;42.768;23.404;2024-02-26T06:17:34;95217.91;;;8.26;100.00
11676;BME280;5894;42.768;23.404;2024-02-26T06:20:01;95210.50;;;8.28;100.00
11676;BME280;5894;42.768;23.404;2024-02-26T06:22:31;95216.66;;;8.37;100.00
11676;BME280;5894;42.768;23.404;2024-02-26T06:24:58;95224.13;;;8.30;100.00
11676;BME280;5894;42.768;23.404;2024-02-26T06:27:25;95215.38;;;8.34;100.00
11676;BME280;5894;42.768;23.404;2024-02-26T06:29:52;95218.22;;;8.38;100.00
11676;BME280;5894;42.768;23.404;2024-02-26T06:32:19;95217.91;;;8.39;100.00
11676;BME280;5894;42.768;23.404;2024-02-26T06:34:48;95168.22;;;8.16;100.00
11676;BME280;5894;42.768;23.404;2024-02-26T06:37:15;95214.16;;;8.54;100.00
11676;BME280;5894;42.768;23.404;2024-02-26T06:39:44;95218.44;;;8.64;100.00
11676;BME280;5894;42.768;23.404;2024-02-26T06:42:11;95215.41;;;8.70;100.00
11676;BME280;5894;42.768;23.404;2024-02-26T06:44:38;95209.38;;;8.70;100.00
11676;BME280;5894;42.768;23.404;2024-02-26T06:47:05;95204.69;;;8.67;100.00
11676;BME280;5894;42.768;23.404;2024-02-26T06:49:32;95174.88;;;8.49;100.00
11676;BME280;5894;42.768;23.404;2024-02-26T06:52:00;95205.72;;;8.79;100.00
11676;BME280;5894;42.768;23.404;2024-02-26T06:54:27;95208.47;;;8.74;100.00
11676;BME280;5894;42.768;23.404;2024-02-26T06:56:55;95206.03;;;8.78;100.00
11676;BME280;5894;42.768;23.404;2024-02-26T06:59:22;95200.97;;;8.81;100.00
11676;BME280;5894;42.768;23.404;2024-02-26T07:01:49;95182.78;;;8.71;100.00
11676;BME280;5894;42.768;23.404;2024-02-26T07:04:17;95214.28;;;8.85;100.00
11676;BME280;5894;42.768;23.404;2024-02-26T07:06:44;95213.50;;;8.84;100.00
11676;BME280;5894;42.768;23.404;2024-02-26T07:09:12;95216.50;;;8.92;100.00
11676;BME280;5894;42.768;23.404;2024-02-26T07:11:39;95211.88;;;8.97;100.00
11676;BME280;5894;42.768;23.404;2024-02-26T07:14:09;95218.56;;;9.03;100.00
11676;BME280;5894;42.768;23.404;2024-02-26T07:16:37;95218.75;;;9.07;100.00
11676;BME280;5894;42.768;23.404;2024-02-26T07:19:04;95221.72;;;9.14;100.00
11676;BME280;5894;42.768;23.404;2024-02-26T07:21:31;95225.63;;;9.16;100.00
11676;BME280;5894;42.768;23.404;2024-02-26T07:23:58;95229.81;;;9.17;100.00
11676;BME280;5894;42.768;23.404;2024-02-26T07:26:25;95230.00;;;9.21;100.00
11676;BME280;5894;42.768;23.404;2024-02-26T07:28:52;95229.88;;;9.26;100.00
11676;BME280;5894;42.768;23.404;2024-02-26T07:31:21;95229.47;;;9.33;100.00
11676;BME280;5894;42.768;23.404;2024-02-26T07:33:48;95222.69;;;9.40;100.00
11676;BME280;5894;42.768;23.404;2024-02-26T07:36:15;95223.66;;;9.44;100.00
11676;BME280;5894;42.768;23.404;2024-02-26T07:38:42;95224.09;;;9.46;100.00
11676;BME280;5894;42.768;23.404;2024-02-26T07:41:09;95228.03;;;9.57;100.00
11676;BME280;5894;42.768;23.404;2024-02-26T07:43:36;95231.81;;;9.65;100.00
11676;BME280;5894;42.768;23.404;2024-02-26T07:46:04;95237.09;;;9.74;100.00
11676;BME280;5894;42.768;23.404;2024-02-26T07:48:32;95236.34;;;9.82;100.00
11676;BME280;5894;42.768;23.404;2024-02-26T07:50:59;95236.09;;;9.92;100.00
11676;BME280;5894;42.768;23.404;2024-02-26T07:53:28;95233.00;;;9.99;100.00
11676;BME280;5894;42.768;23.404;2024-02-26T07:55:56;95237.84;;;10.05;100.00
11676;BME280;5894;42.768;23.404;2024-02-26T07:58:23;95235.22;;;10.05;100.00
11676;BME280;5894;42.768;23.404;2024-02-26T08:00:51;95240.50;;;10.14;100.00
11676;BME280;5894;42.768;23.404;2024-02-26T08:03:18;95231.69;;;10.18;100.00
11676;BME280;5894;42.768;23.404;2024-02-26T08:05:47;95228.63;;;10.25;100.00
11676;BME280;5894;42.768;23.404;2024-02-26T08:08:29;95228.03;;;10.37;100.00
11676;BME280;5894;42.768;23.404;2024-02-26T08:10:56;95225.56;;;10.49;100.00
11676;BME280;5894;42.768;23.404;2024-02-26T08:13:23;95222.97;;;10.57;100.00
11676;BME280;5894;42.768;23.404;2024-02-26T08:15:52;95219.97;;;10.59;100.00
11676;BME280;5894;42.768;23.404;2024-02-26T08:18:19;95218.28;;;10.63;100.00
11676;BME280;5894;42.768;23.404;2024-02-26T08:20:46;95217.69;;;10.66;100.00
11676;BME280;5894;42.768;23.404;2024-02-26T08:23:14;95214.09;;;10.71;100.00
11676;BME280;5894;42.768;23.404;2024-02-26T08:25:42;95209.78;;;10.66;100.00
11676;BME280;5894;42.768;23.404;2024-02-26T08:28:09;95215.53;;;10.68;100.00
11676;BME280;5894;42.768;23.404;2024-02-26T08:30:38;95215.03;;;10.75;100.00
11676;BME280;5894;42.768;23.404;2024-02-26T08:33:05;95208.69;;;10.84;100.00
11676;BME280;5894;42.768;23.404;2024-02-26T08:35:32;95209.44;;;10.93;100.00
11676;BME280;5894;42.768;23.404;2024-02-26T08:37:59;95208.38;;;10.94;100.00
11676;BME280;5894;42.768;23.404;2024-02-26T08:40:26;95211.00;;;11.03;100.00
11676;BME280;5894;42.768;23.404;2024-02-26T08:42:55;95213.63;;;11.03;100.00
11676;BME280;5894;42.768;23.404;2024-02-26T08:45:22;95211.00;;;11.20;100.00
11676;BME280;5894;42.768;23.404;2024-02-26T08:47:49;95202.59;;;11.27;100.00
11676;BME280;5894;42.768;23.404;2024-02-26T08:50:17;95197.75;;;11.37;100.00
11676;BME280;5894;42.768;23.404;2024-02-26T08:52:44;95208.25;;;11.55;100.00
11676;BME280;5894;42.768;23.404;2024-02-26T08:55:14;95204.69;;;11.59;100.00
11676;BME280;5894;42.768;23.404;2024-02-26T08:57:41;95210.09;;;11.71;100.00
11676;BME280;5894;42.768;23.404;2024-02-26T09:00:11;95205.28;;;11.65;100.00
11676;BME280;5894;42.768;23.404;2024-02-26T09:02:38;95200.09;;;11.86;100.00
11676;BME280;5894;42.768;23.404;2024-02-26T09:05:06;95210.53;;;11.82;100.00
11676;BME280;5894;42.768;23.404;2024-02-26T09:07:33;95210.19;;;11.92;100.00
11676;BME280;5894;42.768;23.404;2024-02-26T09:10:00;95206.78;;;11.92;100.00
11676;BME280;5894;42.768;23.404;2024-02-26T09:12:28;95201.59;;;12.04;100.00
11676;BME280;5894;42.768;23.404;2024-02-26T09:14:55;95209.94;;;12.15;100.00
11676;BME280;5894;42.768;23.404;2024-02-26T09:17:24;95199.78;;;12.17;100.00
11676;BME280;5894;42.768;23.404;2024-02-26T09:19:51;95209.69;;;12.28;100.00
11676;BME280;5894;42.768;23.404;2024-02-26T09:22:18;95206.34;;;12.40;100.00
11676;BME280;5894;42.768;23.404;2024-02-26T09:24:45;95208.69;;;12.41;100.00
11676;BME280;5894;42.768;23.404;2024-02-26T09:27:12;95206.19;;;12.45;100.00
11676;BME280;5894;42.768;23.404;2024-02-26T09:29:39;95203.53;;;12.45;100.00
11676;BME280;5894;42.768;23.404;2024-02-26T09:32:06;95199.28;;;12.53;100.00
11676;BME280;5894;42.768;23.404;2024-02-26T09:34:35;95192.06;;;12.62;100.00
11676;BME280;5894;42.768;23.404;2024-02-26T09:37:02;95191.34;;;12.73;100.00
11676;BME280;5894;42.768;23.404;2024-02-26T09:39:29;95176.56;;;12.72;100.00
11676;BME280;5894;42.768;23.404;2024-02-26T09:41:56;95190.94;;;12.83;100.00
11676;BME280;5894;42.768;23.404;2024-02-26T09:44:26;95184.88;;;12.83;100.00
11676;BME280;5894;42.768;23.404;2024-02-26T09:46:56;95195.53;;;12.95;100.00
11676;BME280;5894;42.768;23.404;2024-02-26T09:49:24;95187.06;;;13.02;100.00
11676;BME280;5894;42.768;23.404;2024-02-26T09:51:54;95186.66;;;13.12;100.00
11676;BME280;5894;42.768;23.404;2024-02-26T09:54:24;95181.19;;;13.17;100.00
11676;BME280;5894;42.768;23.404;2024-02-26T09:56:57;95179.22;;;13.26;100.00
11676;BME280;5894;42.768;23.404;2024-02-26T09:59:26;95143.34;;;13.16;100.00
11676;BME280;5894;42.768;23.404;2024-02-26T10:01:53;95180.81;;;13.51;100.00
11676;BME280;5894;42.768;23.404;2024-02-26T10:04:21;95182.94;;;13.58;100.00
11676;BME280;5894;42.768;23.404;2024-02-26T10:06:50;95183.81;;;13.62;100.00
11676;BME280;5894;42.768;23.404;2024-02-26T10:09:19;95183.72;;;13.58;100.00
11676;BME280;5894;42.768;23.404;2024-02-26T10:11:47;95181.72;;;13.55;100.00
11676;BME280;5894;42.768;23.404;2024-02-26T10:14:16;95185.47;;;13.54;100.00
11676;BME280;5894;42.768;23.404;2024-02-26T10:16:43;95177.53;;;13.54;100.00
11676;BME280;5894;42.768;23.404;2024-02-26T10:19:24;95176.75;;;13.54;100.00
11676;BME280;5894;42.768;23.404;2024-02-26T10:21:56;95168.94;;;13.57;100.00
11676;BME280;5894;42.768;23.404;2024-02-26T10:24:24;95146.81;;;13.41;100.00
11676;BME280;5894;42.768;23.404;2024-02-26T10:26:52;95171.66;;;13.61;100.00
11676;BME280;5894;42.768;23.404;2024-02-26T10:29:19;95146.72;;;13.50;100.00
11676;BME280;5894;42.768;23.404;2024-02-26T10:31:47;95159.00;;;13.67;100.00
11676;BME280;5894;42.768;23.404;2024-02-26T10:34:14;95141.31;;;13.46;100.00
11676;BME280;5894;42.768;23.404;2024-02-26T10:36:42;95171.69;;;13.73;100.00
11676;BME280;5894;42.768;23.404;2024-02-26T10:39:09;95157.13;;;13.79;100.00
11676;BME280;5894;42.768;23.404;2024-02-26T10:41:39;95148.28;;;13.75;100.00
11676;BME280;5894;42.768;23.404;2024-02-26T10:44:08;95157.03;;;13.88;100.00
11676;BME280;5894;42.768;23.404;2024-02-26T10:46:36;95156.69;;;13.89;100.00
11676;BME280;5894;42.768;23.404;2024-02-26T10:49:04;95096.94;;;13.55;100.00
11676;BME280;5894;42.768;23.404;2024-02-26T10:51:34;95152.91;;;14.03;100.00
11676;BME280;5894;42.768;23.404;2024-02-26T10:54:04;95150.59;;;14.13;100.00
11676;BME280;5894;42.768;23.404;2024-02-26T10:56:36;95142.09;;;14.08;100.00
11676;BME280;5894;42.768;23.404;2024-02-26T10:59:09;95142.88;;;14.20;100.00
11676;BME280;5894;42.768;23.404;2024-02-26T11:01:36;95147.06;;;14.21;100.00
11676;BME280;5894;42.768;23.404;2024-02-26T11:04:05;95138.66;;;14.19;100.00
11676;BME280;5894;42.768;23.404;2024-02-26T11:06:32;95141.19;;;14.16;100.00
11676;BME280;5894;42.768;23.404;2024-02-26T11:09:01;95119.13;;;13.87;100.00
11676;BME280;5894;42.768;23.404;2024-02-26T11:11:30;95143.00;;;14.12;100.00
11676;BME280;5894;42.768;23.404;2024-02-26T11:14:01;95140.44;;;14.15;100.00
11676;BME280;5894;42.768;23.404;2024-02-26T11:16:33;95142.44;;;14.18;100.00
11676;BME280;5894;42.768;23.404;2024-02-26T11:19:02;95133.56;;;14.26;100.00
11676;BME280;5894;42.768;23.404;2024-02-26T11:21:29;95136.78;;;14.32;100.00
11676;BME280;5894;42.768;23.404;2024-02-26T11:24:05;95125.72;;;14.30;100.00
11676;BME280;5894;42.768;23.404;2024-02-26T11:26:34;95123.16;;;14.46;100.00
11676;BME280;5894;42.768;23.404;2024-02-26T11:29:03;95120.41;;;14.42;100.00
11676;BME280;5894;42.768;23.404;2024-02-26T11:31:33;95142.94;;;14.36;100.00
11676;BME280;5894;42.768;23.404;2024-02-26T11:34:01;95134.78;;;14.41;100.00
11676;BME280;5894;42.768;23.404;2024-02-26T11:36:28;95129.25;;;14.46;100.00
11676;BME280;5894;42.768;23.404;2024-02-26T11:38:55;95129.69;;;14.36;100.00
11676;BME280;5894;42.768;23.404;2024-02-26T11:41:23;95125.25;;;14.52;100.00
11676;BME280;5894;42.768;23.404;2024-02-26T11:43:51;95122.50;;;14.49;100.00
11676;BME280;5894;42.768;23.404;2024-02-26T11:46:25;95118.25;;;14.60;100.00
11676;BME280;5894;42.768;23.404;2024-02-26T11:48:56;95123.75;;;14.67;99.28
11676;BME280;5894;42.768;23.404;2024-02-26T11:51:27;95113.06;;;14.63;96.59
11676;BME280;5894;42.768;23.404;2024-02-26T11:53:54;95108.66;;;14.55;96.08
11676;BME280;5894;42.768;23.404;2024-02-26T11:56:24;95119.38;;;14.59;94.82
11676;BME280;5894;42.768;23.404;2024-02-26T11:59:00;95118.25;;;14.60;96.00
11676;BME280;5894;42.768;23.404;2024-02-26T12:01:38;95102.03;;;14.49;95.98
11676;BME280;5894;42.768;23.404;2024-02-26T12:04:09;95116.81;;;14.62;94.93
11676;BME280;5894;42.768;23.404;2024-02-26T12:06:46;95122.34;;;14.57;95.84
11676;BME280;5894;42.768;23.404;2024-02-26T12:09:16;95071.13;;;14.29;94.76
11676;BME280;5894;42.768;23.404;2024-02-26T12:11:57;95081.41;;;14.43;94.49
11676;BME280;5894;42.768;23.404;2024-02-26T12:14:25;95113.25;;;14.71;93.86
11676;BME280;5894;42.768;23.404;2024-02-26T12:16:53;95111.44;;;14.75;95.76
11676;BME280;5894;42.768;23.404;2024-02-26T12:19:23;95114.09;;;14.75;96.09
11676;BME280;5894;42.768;23.404;2024-02-26T12:21:51;95116.41;;;14.76;94.74
11676;BME280;5894;42.768;23.404;2024-02-26T12:24:19;95112.44;;;14.82;94.45
11676;BME280;5894;42.768;23.404;2024-02-26T12:26:46;95118.25;;;14.88;94.73
11676;BME280;5894;42.768;23.404;2024-02-26T12:29:14;95118.91;;;14.85;92.98
11676;BME280;5894;42.768;23.404;2024-02-26T12:31:41;95122.72;;;14.84;93.36
11676;BME280;5894;42.768;23.404;2024-02-26T12:34:09;95124.00;;;14.90;95.16
11676;BME280;5894;42.768;23.404;2024-02-26T12:36:38;95121.94;;;14.83;94.43
11676;BME280;5894;42.768;23.404;2024-02-26T12:39:06;95116.03;;;14.90;94.62
11676;BME280;5894;42.768;23.404;2024-02-26T12:41:35;95124.34;;;14.88;88.93
11676;BME280;5894;42.768;23.404;2024-02-26T12:44:02;95110.56;;;14.83;87.54
11676;BME280;5894;42.768;23.404;2024-02-26T12:46:29;95082.41;;;14.66;86.38
11676;BME280;5894;42.768;23.404;2024-02-26T12:48:58;95126.28;;;15.03;84.88
11676;BME280;5894;42.768;23.404;2024-02-26T12:51:26;95121.81;;;15.07;87.09
11676;BME280;5894;42.768;23.404;2024-02-26T12:53:56;95112.84;;;15.12;90.14
11676;BME280;5894;42.768;23.404;2024-02-26T12:56:24;95106.16;;;15.18;90.76
11676;BME280;5894;42.768;23.404;2024-02-26T12:58:53;95101.28;;;15.20;91.75
11676;BME280;5894;42.768;23.404;2024-02-26T13:01:23;95105.13;;;15.23;91.24